createdAt,value
2018-05-09T00:01:30.616Z,5.33
2018-05-09T00:03:59.611Z,7.80
2018-05-09T00:06:27.476Z,5.20
2018-05-09T00:08:55.338Z,8.63
2018-05-09T00:11:23.306Z,9.70
2018-05-09T00:13:51.173Z,6.23
2018-05-09T00:16:19.039Z,6.50
2018-05-09T00:18:46.905Z,4.63
2018-05-09T00:21:14.667Z,4.30
2018-05-09T00:23:42.534Z,8.33
2018-05-09T00:26:10.399Z,4.93
2018-05-09T00:28:38.264Z,5.73
2018-05-09T00:31:06.164Z,3.87
2018-05-09T00:33:34.818Z,12.30
2018-05-09T00:36:02.681Z,4.43
2018-05-09T00:38:30.545Z,5.37
2018-05-09T00:40:58.410Z,8.20
2018-05-09T00:43:26.483Z,14.57
2018-05-09T00:45:54.347Z,7.87
2018-05-09T00:48:22.214Z,5.57
2018-05-09T00:50:50.080Z,4.90
2018-05-09T00:53:17.947Z,11.73
2018-05-09T00:55:45.810Z,6.43
2018-05-09T00:58:14.499Z,5.23
2018-05-09T01:00:42.361Z,5.47
2018-05-09T01:03:10.229Z,5.03
2018-05-09T01:05:38.196Z,4.63
2018-05-09T01:08:06.678Z,6.20
2018-05-09T01:10:34.544Z,6.70
2018-05-09T01:13:02.409Z,11.30
2018-05-09T01:15:30.489Z,7.90
2018-05-09T01:17:58.346Z,4.97
2018-05-09T01:20:26.215Z,7.53
2018-05-09T01:22:54.078Z,6.50
2018-05-09T01:25:21.944Z,12.33
2018-05-09T01:27:49.808Z,8.57
2018-05-09T01:30:17.674Z,5.43
2018-05-09T01:32:45.542Z,6.27
2018-05-09T01:35:13.408Z,6.97
2018-05-09T01:37:41.480Z,6.47
2018-05-09T01:40:09.344Z,7.17
2018-05-09T01:42:37.210Z,6.57
2018-05-09T01:45:05.177Z,8.90
2018-05-09T01:47:33.043Z,8.93
2018-05-09T01:50:01.011Z,11.10
2018-05-09T01:52:28.879Z,12.10
2018-05-09T01:54:56.866Z,8.23
2018-05-09T01:57:25.528Z,8.20
2018-05-09T01:59:53.395Z,7.40
2018-05-09T02:02:21.261Z,8.93
2018-05-09T02:04:49.125Z,7.87
2018-05-09T02:07:17.504Z,5.50
2018-05-09T02:09:45.369Z,7.63
2018-05-09T02:12:13.234Z,6.77
2018-05-09T02:14:41.203Z,7.47
2018-05-09T02:17:09.071Z,12.13
2018-05-09T02:19:36.934Z,7.67
2018-05-09T02:22:04.805Z,10.10
2018-05-09T02:24:33.178Z,9.10
2018-05-09T02:27:01.051Z,7.17
2018-05-09T02:29:28.912Z,8.40
2018-05-09T02:31:56.781Z,9.60
2018-05-09T02:34:24.642Z,9.90
2018-05-09T02:36:52.508Z,11.23
2018-05-09T02:39:20.410Z,7.60
2018-05-09T02:41:49.062Z,9.57
2018-05-09T02:44:16.924Z,9.30
2018-05-09T02:46:44.795Z,9.00
2018-05-09T02:49:12.663Z,9.90
2018-05-09T02:51:40.626Z,10.00
2018-05-09T02:54:08.492Z,9.63
2018-05-09T02:56:36.359Z,16.93
2018-05-09T02:59:04.325Z,8.63
2018-05-09T03:01:32.192Z,11.33
2018-05-09T03:04:00.056Z,12.53
2018-05-09T03:06:27.926Z,12.30
2018-05-09T03:08:55.791Z,10.63
2018-05-09T03:11:23.657Z,8.70
2018-05-09T03:13:52.190Z,13.07
2018-05-09T03:16:20.001Z,12.00
2018-05-09T03:18:47.863Z,9.80
2018-05-09T03:21:15.833Z,13.73
2018-05-09T03:23:43.599Z,9.07
2018-05-09T03:26:11.396Z,12.00
2018-05-09T03:28:40.045Z,19.27
2018-05-09T03:31:07.918Z,17.37
2018-05-09T03:33:35.777Z,13.90
2018-05-09T03:36:03.831Z,10.70
2018-05-09T03:38:32.026Z,12.97
2018-05-09T03:41:00.092Z,37.03
2018-05-09T03:43:27.959Z,12.00
2018-05-09T03:45:55.824Z,17.87
2018-05-09T03:48:23.692Z,9.67
2018-05-09T03:50:51.472Z,13.70
2018-05-09T03:53:19.268Z,18.70
2018-05-09T03:55:48.024Z,11.77
2018-05-09T03:58:15.744Z,10.07
2018-05-09T04:00:43.465Z,10.50
2018-05-09T04:03:23.917Z,12.80
2018-05-09T04:06:04.455Z,10.00
2018-05-09T04:08:44.219Z,14.13
2018-05-09T04:11:11.942Z,11.43
2018-05-09T04:13:39.659Z,12.97
2018-05-09T04:16:08.207Z,10.30
2018-05-09T04:18:36.074Z,14.67
2018-05-09T04:21:04.248Z,14.17
2018-05-09T04:23:32.114Z,10.70
2018-05-09T04:25:59.844Z,13.00
2018-05-09T04:28:28.155Z,13.90
2018-05-09T04:30:56.022Z,15.77
2018-05-09T04:33:23.898Z,16.83
2018-05-09T04:35:51.658Z,14.10
2018-05-09T04:38:19.409Z,14.53
2018-05-09T04:40:47.163Z,12.57
2018-05-09T04:43:14.952Z,10.23
2018-05-09T04:45:43.307Z,8.93
2018-05-09T04:48:36.487Z,9.83
2018-05-09T04:51:21.874Z,10.20
2018-05-09T04:53:50.489Z,6.83
2018-05-09T04:56:18.205Z,6.60
2018-05-09T04:58:45.932Z,6.53
2018-05-09T05:01:13.703Z,11.53
2018-05-09T05:03:42.919Z,12.90
2018-05-09T05:06:12.127Z,9.30
2018-05-09T05:08:39.994Z,8.23
2018-05-09T05:11:07.752Z,17.50
2018-05-09T05:13:35.483Z,11.60
2018-05-09T05:16:03.243Z,9.07
2018-05-09T05:18:30.953Z,7.60
2018-05-09T05:20:58.824Z,13.53
2018-05-09T05:23:26.546Z,12.70
2018-05-09T05:25:54.320Z,11.37
2018-05-09T05:28:22.066Z,15.70
2018-05-09T05:30:49.782Z,10.03
2018-05-09T05:33:17.533Z,11.30
2018-05-09T05:35:45.303Z,11.10
2018-05-09T05:38:13.011Z,6.97
2018-05-09T05:40:40.743Z,11.53
2018-05-09T05:43:09.632Z,10.50
2018-05-09T05:45:38.160Z,12.37
2018-05-09T05:48:05.871Z,7.63
2018-05-09T05:50:33.633Z,10.93
2018-05-09T05:53:01.346Z,11.60
2018-05-09T05:55:29.099Z,9.40
2018-05-09T05:57:56.813Z,7.47
2018-05-09T06:00:24.605Z,13.73
2018-05-09T06:02:53.084Z,8.40
2018-05-09T06:05:21.649Z,11.87
2018-05-09T06:07:49.434Z,10.93
2018-05-09T06:10:17.140Z,7.60
2018-05-09T06:12:44.944Z,12.17
2018-05-09T06:15:12.706Z,11.50
2018-05-09T06:17:40.432Z,11.83
2018-05-09T06:20:08.187Z,16.77
2018-05-09T06:22:35.911Z,10.13
2018-05-09T06:25:03.755Z,7.60
2018-05-09T06:27:31.488Z,10.80
2018-05-09T06:29:59.383Z,17.30
2018-05-09T06:32:27.095Z,21.87
2018-05-09T06:34:54.852Z,8.80
2018-05-09T06:37:23.404Z,8.40
2018-05-09T06:39:51.463Z,7.50
2018-05-09T06:42:19.535Z,9.97
2018-05-09T06:44:47.404Z,13.77
2018-05-09T06:47:16.192Z,7.50
2018-05-09T06:49:44.161Z,11.97
2018-05-09T06:52:12.027Z,8.80
2018-05-09T06:54:39.893Z,8.07
2018-05-09T06:57:07.760Z,13.77
2018-05-09T06:59:35.628Z,8.47
2018-05-09T07:02:03.618Z,7.20
2018-05-09T07:04:31.461Z,11.23
2018-05-09T07:06:59.326Z,7.23
2018-05-09T07:09:27.706Z,15.13
2018-05-09T07:11:55.571Z,9.80
2018-05-09T07:14:23.444Z,8.87
2018-05-09T07:16:51.311Z,13.97
2018-05-09T07:19:19.169Z,17.00
2018-05-09T07:21:47.035Z,8.00
2018-05-09T07:24:14.902Z,11.37
2018-05-09T07:26:42.769Z,12.20
2018-05-09T07:29:10.635Z,15.03
2018-05-09T07:31:38.508Z,8.17
2018-05-09T07:34:06.469Z,10.93
2018-05-09T07:36:34.339Z,9.60
2018-05-09T07:39:02.202Z,15.20
2018-05-09T07:41:30.069Z,12.93
2018-05-09T07:43:57.936Z,11.83
2018-05-09T07:46:25.801Z,10.00
2018-05-09T07:48:53.949Z,14.10
2018-05-09T07:51:22.558Z,9.83
2018-05-09T07:53:50.422Z,8.23
2018-05-09T07:56:18.393Z,11.20
2018-05-09T07:58:46.258Z,13.43
2018-05-09T08:01:14.129Z,10.10
2018-05-09T08:03:42.232Z,14.63
2018-05-09T08:06:10.062Z,10.83
2018-05-09T08:08:37.927Z,17.40
2018-05-09T08:11:05.797Z,16.67
2018-05-09T08:13:33.556Z,11.60
2018-05-09T08:16:01.425Z,9.13
2018-05-09T08:18:29.296Z,11.60
2018-05-09T08:20:57.154Z,11.37
2018-05-09T08:23:25.534Z,8.70
2018-05-09T08:25:53.398Z,12.50
2018-05-09T08:28:21.269Z,10.73
2018-05-09T08:30:49.234Z,8.87
2018-05-09T08:33:17.182Z,12.83
2018-05-09T08:35:45.071Z,16.70
2018-05-09T08:38:13.345Z,67.43
2018-05-09T08:40:41.066Z,10.70
2018-05-09T08:43:08.773Z,14.17
2018-05-09T08:45:37.662Z,11.23
2018-05-09T08:48:05.388Z,9.73
2018-05-09T08:50:33.123Z,11.43
2018-05-09T08:53:02.105Z,7.33
2018-05-09T08:55:30.652Z,12.00
2018-05-09T08:57:58.339Z,14.03
2018-05-09T09:00:26.090Z,12.07
2018-05-09T09:02:53.947Z,12.83
2018-05-09T09:05:21.815Z,10.50
2018-05-09T09:07:49.694Z,11.30
2018-05-09T09:10:17.547Z,9.80
2018-05-09T09:12:45.413Z,10.40
2018-05-09T09:15:13.283Z,9.03
2018-05-09T09:17:41.143Z,6.90
2018-05-09T09:20:09.009Z,11.47
2018-05-09T09:22:36.876Z,10.97
2018-05-09T09:25:04.742Z,8.67
2018-05-09T09:27:32.607Z,10.53
2018-05-09T09:30:00.474Z,6.47
2018-05-09T09:32:28.571Z,11.90
2018-05-09T09:34:57.230Z,16.27
2018-05-09T09:37:25.096Z,13.87
2018-05-09T09:39:52.959Z,7.23
2018-05-09T09:42:20.826Z,8.83
2018-05-09T09:44:48.895Z,7.63
2018-05-09T09:47:16.761Z,12.80
2018-05-09T09:49:44.626Z,9.07
2018-05-09T09:52:12.493Z,11.53
2018-05-09T09:54:41.283Z,14.40
2018-05-09T09:57:09.248Z,13.77
2018-05-09T09:59:37.115Z,6.70
2018-05-09T10:02:04.979Z,11.33
2018-05-09T10:04:33.050Z,6.70
2018-05-09T10:07:01.018Z,11.10
2018-05-09T10:09:28.884Z,8.47
2018-05-09T10:11:56.748Z,10.80
2018-05-09T10:14:24.619Z,6.73
2018-05-09T10:16:52.481Z,8.47
2018-05-09T10:19:21.170Z,9.40
2018-05-09T10:21:49.134Z,11.33
2018-05-09T10:24:17.000Z,8.97
2018-05-09T10:26:44.868Z,8.03
2018-05-09T10:29:13.141Z,9.53
2018-05-09T10:31:41.006Z,7.17
2018-05-09T10:34:08.873Z,7.90
2018-05-09T10:36:36.738Z,4.83
2018-05-09T10:39:05.421Z,7.00
2018-05-09T10:41:33.492Z,7.17
2018-05-09T10:44:01.358Z,4.43
2018-05-09T10:46:29.226Z,5.50
2018-05-09T10:48:57.199Z,8.23
2018-05-09T10:51:24.914Z,8.37
2018-05-09T10:53:52.821Z,6.17
2018-05-09T10:56:20.687Z,3.07
2018-05-09T10:58:48.655Z,10.33
2018-05-09T11:01:16.524Z,6.40
2018-05-09T11:03:44.388Z,8.03
2018-05-09T11:06:12.457Z,6.83
2018-05-09T11:08:40.324Z,4.60
2018-05-09T11:11:08.192Z,7.73
2018-05-09T11:13:36.155Z,5.43
2018-05-09T11:16:04.123Z,4.13
2018-05-09T11:18:32.501Z,5.70
2018-05-09T11:21:00.367Z,10.33
2018-05-09T11:23:28.233Z,3.80
2018-05-09T11:25:56.305Z,10.03
2018-05-09T11:28:24.169Z,5.23
2018-05-09T11:30:52.034Z,10.40
2018-05-09T11:33:19.910Z,5.30
2018-05-09T11:35:48.073Z,8.70
2018-05-09T11:38:15.937Z,4.37
2018-05-09T11:40:43.804Z,4.93
2018-05-09T11:43:11.670Z,6.37
2018-05-09T11:45:39.538Z,4.13
2018-05-09T11:48:07.506Z,3.93
2018-05-09T11:50:35.370Z,4.10
2018-05-09T11:53:03.145Z,8.23
2018-05-09T11:55:31.000Z,8.57
2018-05-09T11:58:01.732Z,3.60
2018-05-09T12:00:29.602Z,5.80
2018-05-09T12:02:57.462Z,3.30
2018-05-09T12:05:25.329Z,5.40
2018-05-09T12:07:53.297Z,2.97
2018-05-09T12:10:21.284Z,6.20
2018-05-09T12:12:49.027Z,6.17
2018-05-09T12:15:16.893Z,8.20
2018-05-09T12:17:44.765Z,3.17
2018-05-09T12:20:12.624Z,3.37
2018-05-09T12:22:40.731Z,4.83
2018-05-09T12:25:09.381Z,5.00
2018-05-09T12:27:37.246Z,9.00
2018-05-09T12:30:05.317Z,7.30
2018-05-09T12:32:33.078Z,9.57
2018-05-09T12:35:01.035Z,3.60
2018-05-09T12:37:29.719Z,4.97
2018-05-09T12:39:58.524Z,7.13
2018-05-09T12:42:27.835Z,6.10
2018-05-09T12:44:56.094Z,4.30
2018-05-09T12:47:23.966Z,5.50
2018-05-09T12:49:51.825Z,11.57
2018-05-09T12:52:19.690Z,3.63
2018-05-09T12:54:47.760Z,4.73
2018-05-09T12:57:15.629Z,6.50
2018-05-09T12:59:43.494Z,6.70
2018-05-09T13:02:11.868Z,3.33
2018-05-09T13:04:39.735Z,6.67
2018-05-09T13:07:07.602Z,4.70
2018-05-09T13:09:35.669Z,8.00
2018-05-09T13:12:04.716Z,4.43
2018-05-09T13:14:32.631Z,10.83
2018-05-09T13:17:01.829Z,5.20
2018-05-09T13:19:30.615Z,2.70
2018-05-09T13:21:58.480Z,8.07
2018-05-09T13:24:26.453Z,5.50
2018-05-09T13:26:54.314Z,3.40
2018-05-09T13:29:22.180Z,4.10
2018-05-09T13:31:50.045Z,6.77
2018-05-09T13:34:17.912Z,9.50
2018-05-09T13:36:46.596Z,8.60
2018-05-09T13:39:16.640Z,5.03
2018-05-09T13:41:44.886Z,6.73
2018-05-09T13:44:14.092Z,4.60
2018-05-09T13:46:43.629Z,8.30
2018-05-09T13:49:13.789Z,7.70
2018-05-09T13:51:43.470Z,6.43
2018-05-09T13:54:12.204Z,4.17
2018-05-09T13:56:41.095Z,4.33
2018-05-09T13:59:09.880Z,8.17
2018-05-09T14:01:37.744Z,4.37
2018-05-09T14:04:05.609Z,8.70
2018-05-09T14:06:33.374Z,6.93
2018-05-09T14:09:02.297Z,5.80
2018-05-09T14:11:33.968Z,12.40
2018-05-09T14:14:01.887Z,5.77
2018-05-09T14:16:29.751Z,11.53
2018-05-09T14:18:57.618Z,7.50
2018-05-09T14:21:25.485Z,5.90
2018-05-09T14:23:53.271Z,9.73
2018-05-09T14:26:22.171Z,7.33
2018-05-09T14:28:50.688Z,9.43
2018-05-09T14:31:18.422Z,6.07
2018-05-09T14:33:46.998Z,4.50
2018-05-09T14:36:15.548Z,13.53
2018-05-09T14:38:43.265Z,6.10
2018-05-09T14:41:11.065Z,9.93
2018-05-09T14:43:39.546Z,9.67
2018-05-09T14:46:07.261Z,6.70
2018-05-09T14:48:35.180Z,9.03
2018-05-09T14:51:03.041Z,5.80
2018-05-09T14:53:31.013Z,10.13
2018-05-09T14:55:58.877Z,12.40
2018-05-09T14:58:26.743Z,16.17
2018-05-09T15:00:54.711Z,8.30
2018-05-09T15:03:22.576Z,8.20
2018-05-09T15:05:51.569Z,3.73
2018-05-09T15:08:19.434Z,6.67
2018-05-09T15:10:47.163Z,8.33
2018-05-09T15:13:14.900Z,7.43
2018-05-09T15:15:44.724Z,5.20
2018-05-09T15:18:14.642Z,12.30
2018-05-09T15:20:42.652Z,6.60
2018-05-09T15:23:10.447Z,12.10
2018-05-09T15:25:39.102Z,12.67
2018-05-09T15:28:06.848Z,7.57
2018-05-09T15:30:35.122Z,8.57
2018-05-09T15:33:04.459Z,8.93
2018-05-09T15:35:33.230Z,14.50
2018-05-09T15:38:01.953Z,8.40
2018-05-09T15:40:30.595Z,11.57
2018-05-09T15:42:59.977Z,5.80
2018-05-09T15:45:28.887Z,14.50
2018-05-09T15:47:56.604Z,7.07
2018-05-09T15:50:24.923Z,12.17
2018-05-09T15:52:53.634Z,9.03
2018-05-09T15:55:21.399Z,11.47
2018-05-09T15:57:49.964Z,8.57
2018-05-09T16:00:17.748Z,16.13
2018-05-09T16:02:46.235Z,6.80
2018-05-09T16:05:14.022Z,16.37
2018-05-09T16:07:41.749Z,6.73
2018-05-09T16:10:10.331Z,8.73
2018-05-09T16:12:38.820Z,15.70
2018-05-09T16:15:07.470Z,5.60
2018-05-09T16:17:35.187Z,7.20
2018-05-09T16:20:02.935Z,5.83
2018-05-09T16:22:31.687Z,11.30
2018-05-09T16:25:00.135Z,4.87
2018-05-09T16:27:27.851Z,5.63
2018-05-09T16:29:56.391Z,6.47
2018-05-09T16:32:24.168Z,6.73
2018-05-09T16:34:52.250Z,6.80
2018-05-09T16:37:20.108Z,10.10
2018-05-09T16:39:47.972Z,4.20
2018-05-09T16:42:15.838Z,8.83
2018-05-09T16:44:43.704Z,12.00
2018-05-09T16:47:11.568Z,7.00
2018-05-09T16:49:39.436Z,9.30
2018-05-09T16:52:07.403Z,11.10
2018-05-09T16:54:35.267Z,14.00
2018-05-09T16:57:03.133Z,7.97
2018-05-09T16:59:31.101Z,8.90
2018-05-09T17:01:58.967Z,7.03
2018-05-09T17:04:26.831Z,5.00
2018-05-09T17:06:55.518Z,5.90
2018-05-09T17:09:23.382Z,13.33
2018-05-09T17:11:51.350Z,8.70
2018-05-09T17:14:19.079Z,6.57
2018-05-09T17:16:46.980Z,9.90
2018-05-09T17:19:14.933Z,6.40
2018-05-09T17:24:54.930Z,8.27
2018-05-09T17:27:22.985Z,7.17
2018-05-09T17:29:50.853Z,7.03
2018-05-09T17:32:18.717Z,4.03
2018-05-09T17:34:46.787Z,6.13
2018-05-09T17:37:14.653Z,13.47
2018-05-09T17:39:42.518Z,13.53
2018-05-09T17:42:10.385Z,10.50
2018-05-09T17:44:38.250Z,5.57
2018-05-09T17:47:06.219Z,7.10
2018-05-09T17:49:33.982Z,8.27
2018-05-09T17:52:01.849Z,7.00
2018-05-09T17:54:29.714Z,9.27
2018-05-09T17:56:58.864Z,12.63
2018-05-09T17:59:28.107Z,6.33
2018-05-09T18:01:56.282Z,7.33
2018-05-09T18:04:24.048Z,179.40
2018-05-09T18:06:52.013Z,11.67
2018-05-09T18:09:19.877Z,9.27
2018-05-09T18:11:47.947Z,11.13
2018-05-09T18:14:15.924Z,11.93
2018-05-09T18:16:45.528Z,10.17
2018-05-09T18:19:14.615Z,8.70
2018-05-09T18:21:43.000Z,5.80
2018-05-09T18:24:10.861Z,11.03
2018-05-09T18:26:40.066Z,21.33
2018-05-09T18:29:08.739Z,11.40
2018-05-09T18:31:39.145Z,8.90
2018-05-09T18:34:07.851Z,14.43
2018-05-09T18:36:35.818Z,10.70
2018-05-09T18:39:03.642Z,8.87
2018-05-09T18:41:33.188Z,11.00
2018-05-09T18:44:01.870Z,10.60
2018-05-09T18:46:29.637Z,7.67
2018-05-09T18:48:57.469Z,9.33
2018-05-09T18:51:25.261Z,11.53
2018-05-09T18:53:55.451Z,7.50
2018-05-09T18:56:23.231Z,20.00
2018-05-09T18:58:50.970Z,8.00
2018-05-09T19:01:18.770Z,16.80
2018-05-09T19:03:46.533Z,11.03
2018-05-09T19:06:14.280Z,17.23
2018-05-09T19:08:42.927Z,9.47
2018-05-09T19:11:11.453Z,14.00
2018-05-09T19:13:39.176Z,6.60
2018-05-09T19:16:24.433Z,16.07
2018-05-09T19:18:52.176Z,9.70
2018-05-09T19:21:19.929Z,10.97
2018-05-09T19:23:47.689Z,10.03
2018-05-09T19:26:15.713Z,11.10
2018-05-09T19:28:43.512Z,15.23
2018-05-09T19:31:11.389Z,9.30
2018-05-09T19:33:39.258Z,11.10
2018-05-09T19:36:07.029Z,13.80
2018-05-09T19:38:34.851Z,9.73
2018-05-09T19:41:03.262Z,10.10
2018-05-09T19:43:31.772Z,14.20
2018-05-09T19:46:00.289Z,16.73
2018-05-09T19:48:28.161Z,31.17
2018-05-09T19:50:55.932Z,31.63
2018-05-09T19:53:23.647Z,18.20
2018-05-09T19:55:52.196Z,15.10
2018-05-09T19:58:19.908Z,17.13
2018-05-09T20:00:55.869Z,21.87
2018-05-09T20:03:25.447Z,10.30
2018-05-09T20:05:54.128Z,14.27
2018-05-09T20:08:22.619Z,11.30
2018-05-09T20:10:51.193Z,13.37
2018-05-09T20:13:19.747Z,9.10
2018-05-09T20:15:47.818Z,16.40
2018-05-09T20:18:15.990Z,12.97
2018-05-09T20:20:45.199Z,11.97
2018-05-09T20:23:13.160Z,10.07
2018-05-09T20:25:41.230Z,11.60
2018-05-09T20:28:09.094Z,9.20
2018-05-09T20:30:42.620Z,23.70
2018-05-09T20:33:11.266Z,15.23
2018-05-09T20:35:39.076Z,9.23
2018-05-09T20:38:08.439Z,11.63
2018-05-09T20:40:36.304Z,13.83
2018-05-09T20:43:05.129Z,11.47
2018-05-09T20:45:34.626Z,12.40
2018-05-09T20:48:03.280Z,18.97
2018-05-09T20:50:31.147Z,9.53
2018-05-09T20:52:59.117Z,8.60
2018-05-09T20:55:29.136Z,10.23
2018-05-09T20:58:01.057Z,11.07
2018-05-09T21:00:29.964Z,8.73
2018-05-09T21:03:00.064Z,12.70
2018-05-09T21:05:28.783Z,13.93
2018-05-09T21:07:57.610Z,10.23
2018-05-09T21:10:27.111Z,8.07
2018-05-09T21:12:55.044Z,12.90
2018-05-09T21:15:23.016Z,13.03
2018-05-09T21:17:50.875Z,9.60
2018-05-09T21:20:18.748Z,10.00
2018-05-09T21:22:46.608Z,13.57
2018-05-09T21:25:14.474Z,11.93
2018-05-09T21:27:42.485Z,11.90
2018-05-09T21:30:11.004Z,12.10
2018-05-09T21:32:38.788Z,17.37
2018-05-09T21:35:06.757Z,11.43
2018-05-09T21:37:34.621Z,19.03
2018-05-09T21:40:02.486Z,16.27
2018-05-09T21:42:30.557Z,20.73
2018-05-09T21:44:58.423Z,17.40
2018-05-09T21:47:26.287Z,17.73
2018-05-09T21:49:54.460Z,14.30
2018-05-09T21:52:22.327Z,14.13
2018-05-09T21:54:50.191Z,13.83
2018-05-09T21:57:18.401Z,9.73
2018-05-09T21:59:47.049Z,16.47
2018-05-09T22:02:14.917Z,11.33
2018-05-09T22:04:42.780Z,12.83
2018-05-09T22:07:10.647Z,16.63
2018-05-09T22:09:38.512Z,9.83
2018-05-09T22:12:06.377Z,21.23
2018-05-09T22:14:34.187Z,16.87
2018-05-09T22:17:02.827Z,9.37
2018-05-09T22:19:30.693Z,9.70
2018-05-09T22:21:58.658Z,15.30
2018-05-09T22:24:26.524Z,16.27
2018-05-09T22:26:54.698Z,15.07
2018-05-09T22:29:22.564Z,15.30
2018-05-09T22:31:50.429Z,14.63
2018-05-09T22:34:18.807Z,20.43
2018-05-09T22:36:46.672Z,14.50
2018-05-09T22:39:14.536Z,20.13
2018-05-09T22:41:42.293Z,14.43
2018-05-09T22:44:10.167Z,16.33
2018-05-09T22:46:38.031Z,16.13
2018-05-09T22:49:06.001Z,16.83
2018-05-09T22:51:33.864Z,23.13
2018-05-09T22:54:01.659Z,26.23
2018-05-09T22:56:30.246Z,24.07
2018-05-09T22:58:58.896Z,35.30
2018-05-09T23:01:26.762Z,30.27
2018-05-09T23:03:54.934Z,35.93
2018-05-09T23:06:22.902Z,43.27
2018-05-09T23:08:50.773Z,38.83
2018-05-09T23:11:18.734Z,43.87
2018-05-09T23:13:47.625Z,45.40
2018-05-09T23:16:15.490Z,46.63
2018-05-09T23:18:43.359Z,45.83
2018-05-09T23:21:11.221Z,44.60
2018-05-09T23:23:39.155Z,54.43
2018-05-09T23:26:07.789Z,48.50
2018-05-09T23:28:36.456Z,52.47
2018-05-09T23:31:04.323Z,55.90
2018-05-09T23:33:32.395Z,58.90
2018-05-09T23:36:00.267Z,67.83
2018-05-09T23:38:29.045Z,67.27
2018-05-09T23:40:56.910Z,62.60
2018-05-09T23:43:24.776Z,65.60
2018-05-09T23:45:52.653Z,64.93
2018-05-09T23:48:21.635Z,81.80
2018-05-09T23:50:49.607Z,70.27
2018-05-09T23:53:18.286Z,79.37
2018-05-09T23:55:46.201Z,83.80
2018-05-09T23:58:14.839Z,94.07
